Time;durP1;ratioP1;P1;durP2;ratioP2;P2;SDS_P1;SDS_P2;PMS_P1;PMS_P2;Temp;Humidity;BMP_temperature;BMP_pressure;BME280_temperature;BME280_humidity;BME280_pressure;Samples;Min_cycle;Max_cycle;Signal;HPM_P1;HPM_P2
2023/04/19 03:57:32;;;;;;;6.28;4.30;;;;;;;13.30;63.35;100333.75;5606171;31;83314;-57
2023/04/19 04:00:36;;;;;;;5.87;4.30;;;;;;;13.30;63.35;100333.75;5583628;31;34595;-57
2023/04/19 04:03:38;;;;;;;7.53;4.37;;;;;;;12.56;66.14;100344.47;5583824;32;33643;-58
2023/04/19 04:06:41;;;;;;;7.25;4.50;;;;;;;12.64;58.64;100337.62;5582238;31;34127;-58
2023/04/19 04:09:46;;;;;;;8.32;4.65;;;;;;;12.71;64.61;100338.03;5574456;31;33285;-57
2023/04/19 04:12:48;;;;;;;6.22;4.62;;;;;;;12.64;61.65;100334.94;5564015;32;34438;-57
2023/04/19 04:15:51;;;;;;;7.37;4.40;;;;;;;12.79;64.28;100333.88;5563931;32;33380;-57
2023/04/19 04:18:54;;;;;;;6.28;4.32;;;;;;;12.71;68.50;100335.34;5564126;32;32933;-58
2023/04/19 04:21:58;;;;;;;6.90;4.82;;;;;;;12.61;62.67;100338.22;5563943;32;33253;-58
2023/04/19 04:25:01;;;;;;;6.87;4.60;;;;;;;12.72;70.75;100328.09;5563693;32;33148;-57
2023/04/19 04:28:05;;;;;;;10.65;4.80;;;;;;;12.78;60.14;100325.03;5564052;32;33345;-58
2023/04/19 04:31:08;;;;;;;8.23;5.00;;;;;;;12.66;62.48;100324.69;5563809;32;34401;-58
2023/04/19 04:34:11;;;;;;;7.65;5.10;;;;;;;12.43;68.71;100323.72;5563971;32;33548;-58
2023/04/19 04:37:15;;;;;;;8.75;4.80;;;;;;;12.45;66.17;100330.41;5563433;32;34446;-58
2023/04/19 04:40:18;;;;;;;7.50;4.70;;;;;;;12.53;61.69;100320.06;5563727;32;32797;-58
2023/04/19 04:43:22;;;;;;;8.23;5.12;;;;;;;12.66;62.61;100324.69;5563604;32;33359;-58
2023/04/19 04:46:26;;;;;;;8.18;5.10;;;;;;;12.55;69.62;100324.06;5563417;32;34970;-58
2023/04/19 04:49:30;;;;;;;9.15;4.62;;;;;;;12.50;64.36;100323.34;5563503;32;31812;-57
2023/04/19 04:52:32;;;;;;;9.27;4.75;;;;;;;12.68;64.32;100328.69;5563795;32;34287;-58
2023/04/19 04:55:40;;;;;;;9.25;5.05;;;;;;;12.81;61.37;100326.31;5563430;32;34492;-57
2023/04/19 04:58:42;;;;;;;7.53;4.68;;;;;;;13.05;68.73;100326.97;5563603;32;34424;-58
2023/04/19 05:01:45;;;;;;;11.32;6.05;;;;;;;12.87;69.60;100317.06;5563219;32;33367;-58
2023/04/19 05:04:51;;;;;;;11.77;5.43;;;;;;;12.89;63.22;100318.37;5563605;32;32463;-56
2023/04/19 05:07:53;;;;;;;8.30;5.53;;;;;;;13.02;70.01;100321.38;5554733;32;33373;-56
2023/04/19 05:10:55;;;;;;;15.85;5.70;;;;;;;13.16;62.70;100320.28;5549871;32;34399;-55
2023/04/19 05:13:58;;;;;;;8.95;5.35;;;;;;;13.27;62.93;100318.22;5550552;32;33326;-55
2023/04/19 05:17:02;;;;;;;8.20;5.15;;;;;;;13.39;64.35;100320.41;5549721;32;33541;-56
2023/04/19 05:20:07;;;;;;;11.18;5.43;;;;;;;13.47;62.14;100316.22;5548273;32;34435;-56
2023/04/19 05:23:10;;;;;;;10.73;6.05;;;;;;;13.47;62.65;100318.91;5550613;32;34376;-55
2023/04/19 05:26:14;;;;;;;12.05;7.18;;;;;;;13.59;65.01;100317.28;5550453;32;33300;-56
2023/04/19 05:29:17;;;;;;;14.20;7.18;;;;;;;13.76;59.25;100321.25;5549841;32;34032;-56
2023/04/19 05:32:20;;;;;;;15.07;7.50;;;;;;;13.94;57.37;100311.44;5550291;32;34418;-56
2023/04/19 05:35:23;;;;;;;16.55;8.52;;;;;;;14.17;62.10;100315.75;5550017;32;33130;-56
2023/04/19 05:38:25;;;;;;;12.18;7.28;;;;;;;14.24;55.19;100315.34;5549426;32;33360;-56
2023/04/19 05:41:30;;;;;;;14.57;7.47;;;;;;;14.49;61.05;100306.59;5549696;32;34573;-56
2023/04/19 05:44:32;;;;;;;12.93;6.75;;;;;;;14.65;53.69;100306.28;5549909;32;33675;-56
2023/04/19 05:47:35;;;;;;;14.50;6.35;;;;;;;14.68;52.92;100302.94;5549972;32;33763;-56
2023/04/19 05:50:39;;;;;;;13.45;8.02;;;;;;;14.70;52.97;100314.22;5549947;32;33402;-57
2023/04/19 05:53:45;;;;;;;11.65;6.60;;;;;;;14.86;53.59;100303.81;5549828;32;32753;-56
2023/04/19 05:56:47;;;;;;;24.73;6.20;;;;;;;14.98;54.49;100304.84;5549466;32;33235;-56
2023/04/19 05:59:50;;;;;;;9.98;5.60;;;;;;;15.11;54.95;100299.66;5549707;32;34315;-56
2023/04/19 06:02:53;;;;;;;10.95;6.03;;;;;;;15.21;51.81;100300.16;5560187;32;34769;-56
2023/04/19 06:05:55;;;;;;;10.38;5.18;;;;;;;15.28;50.79;100294.31;5569121;31;34509;-56
2023/04/19 06:08:58;;;;;;;7.40;4.95;;;;;;;15.35;46.80;100294.63;5569075;31;33608;-57
2023/04/19 06:12:00;;;;;;;8.85;4.53;;;;;;;15.46;45.70;100303.25;5568932;32;33641;-53
2023/04/19 06:15:04;;;;;;;21.77;6.72;;;;;;;15.58;52.11;100291.84;5569068;32;33720;-54
2023/04/19 06:18:12;;;;;;;12.60;4.97;;;;;;;15.69;43.08;100301.25;5567954;32;34415;-54
2023/04/19 06:21:20;;;;;;;12.50;4.78;;;;;;;15.73;43.58;100291.41;5568433;32;33860;-54
2023/04/19 06:24:23;;;;;;;9.27;5.18;;;;;;;15.82;43.37;100294.91;5564891;32;34015;-54
2023/04/19 06:27:26;;;;;;;8.93;5.05;;;;;;;15.91;44.51;100292.22;5560849;32;33565;-54
2023/04/19 06:30:28;;;;;;;6.28;4.85;;;;;;;16.02;45.63;100287.28;5566476;32;33611;-55
2023/04/19 06:33:30;;;;;;;7.97;5.03;;;;;;;15.88;43.97;100301.75;5567745;32;33332;-54
2023/04/19 06:36:33;;;;;;;9.93;4.40;;;;;;;16.06;46.57;100299.03;5562351;32;34331;-53
2023/04/19 06:39:35;;;;;;;7.07;4.95;;;;;;;16.01;46.09;100288.41;5570719;31;32978;-54
2023/04/19 06:42:37;;;;;;;6.05;4.75;;;;;;;15.92;43.74;100289.19;5555545;32;34364;-54
2023/04/19 06:45:40;;;;;;;7.97;5.15;;;;;;;15.92;47.78;100285.69;5566847;32;34327;-54
2023/04/19 06:48:47;;;;;;;6.35;4.35;;;;;;;16.02;45.92;100284.56;5560826;32;33668;-54
2023/04/19 06:51:50;;;;;;;6.45;4.18;;;;;;;16.12;42.68;100286.94;5564071;32;34352;-54
2023/04/19 06:54:57;;;;;;;9.93;4.00;;;;;;;16.09;41.17;100284.87;5563988;32;34322;-53
2023/04/19 06:58:06;;;;;;;7.68;4.35;;;;;;;16.15;41.22;100286.31;5567535;32;34349;-54
2023/04/19 07:01:09;;;;;;;6.68;4.30;;;;;;;16.17;42.34;100275.97;5566007;32;34300;-54
2023/04/19 07:04:12;;;;;;;6.65;4.05;;;;;;;16.19;41.28;100282.66;5565870;32;33556;-56
2023/04/19 07:07:15;;;;;;;7.20;4.00;;;;;;;16.35;46.96;100276.75;5566780;32;34375;-56
2023/04/19 07:10:17;;;;;;;5.32;3.58;;;;;;;16.33;40.19;100274.37;5564928;32;33720;-56
2023/04/19 07:13:20;;;;;;;4.97;3.70;;;;;;;16.32;38.59;100270.06;5566574;32;33726;-56
2023/04/19 07:16:22;;;;;;;7.05;3.75;;;;;;;16.37;37.92;100267.19;5567753;32;33822;-56
2023/04/19 07:19:25;;;;;;;5.35;3.53;;;;;;;16.45;37.82;100269.06;5566351;32;34328;-57
2023/04/19 07:22:27;;;;;;;5.70;3.90;;;;;;;16.52;41.91;100260.47;5566348;32;33745;-56
2023/04/19 07:25:29;;;;;;;7.05;3.92;;;;;;;16.66;40.27;100265.69;5561173;32;33710;-56
2023/04/19 07:28:32;;;;;;;6.40;3.45;;;;;;;16.75;39.32;100273.78;5563578;32;34266;-56
2023/04/19 07:31:36;;;;;;;5.53;3.92;;;;;;;16.75;37.72;100265.69;5563568;32;33617;-56
2023/04/19 07:34:40;;;;;;;6.75;3.62;;;;;;;16.71;36.20;100257.37;5557314;32;34194;-55
2023/04/19 07:37:42;;;;;;;6.28;3.60;;;;;;;16.86;45.74;100267.72;5565239;32;33095;-56
2023/04/19 07:40:44;;;;;;;5.12;3.53;;;;;;;16.92;35.72;100254.81;5562583;32;33816;-55
2023/04/19 07:43:47;;;;;;;6.85;3.60;;;;;;;16.93;37.10;100253.66;5561407;32;33138;-56
2023/04/19 07:46:49;;;;;;;5.07;3.60;;;;;;;16.98;38.78;100248.06;5566665;32;34378;-56
2023/04/19 07:49:52;;;;;;;5.35;3.55;;;;;;;17.08;44.12;100263.16;5564218;32;32015;-56
2023/04/19 07:52:55;;;;;;;6.07;3.30;;;;;;;17.02;36.57;100256.31;5553530;32;33595;-56
2023/04/19 07:55:57;;;;;;;5.05;3.10;;;;;;;17.07;40.57;100258.84;5566343;32;33986;-56
2023/04/19 07:59:00;;;;;;;6.93;3.47;;;;;;;17.12;36.35;100254.06;5564951;32;33693;-56
2023/04/19 08:02:10;;;;;;;6.20;2.70;;;;;;;17.12;34.42;100256.78;5568041;32;33599;-56
2023/04/19 08:05:16;;;;;;;6.93;2.85;;;;;;;17.14;34.02;100251.00;5567751;32;34320;-56
2023/04/19 08:08:18;;;;;;;6.12;2.85;;;;;;;17.20;36.28;100248.91;5566347;32;33720;-56
2023/04/19 08:11:21;;;;;;;4.68;3.15;;;;;;;17.40;36.78;100244.66;5562298;32;34296;-56
2023/04/19 08:14:23;;;;;;;8.40;2.80;;;;;;;17.47;36.63;100243.00;5561711;32;34323;-56
2023/04/19 08:17:42;;;;;;;5.30;2.60;;;;;;;17.48;36.55;100247.31;5560344;32;33247;-57
2023/04/19 08:20:46;;;;;;;4.90;2.78;;;;;;;17.29;34.49;100249.66;5561253;32;33192;-56
2023/04/19 08:23:48;;;;;;;4.93;3.10;;;;;;;17.25;35.81;100246.00;5557289;32;34487;-56
2023/04/19 08:26:55;;;;;;;7.55;3.25;;;;;;;17.22;36.68;100252.06;5551813;32;33525;-56
2023/04/19 08:30:02;;;;;;;5.97;3.17;;;;;;;17.15;37.76;100252.59;5560062;32;33624;-57
2023/04/19 08:33:04;;;;;;;8.20;3.40;;;;;;;17.04;39.01;100248.69;5550047;32;33755;-56
2023/04/19 08:36:07;;;;;;;5.28;3.30;;;;;;;17.01;43.78;100252.81;5554501;32;33581;-56
2023/04/19 08:39:11;;;;;;;7.87;3.62;;;;;;;16.99;39.74;100244.25;5553672;32;33285;-56
2023/04/19 08:42:26;;;;;;;7.50;3.25;;;;;;;16.95;43.44;100247.91;5560100;32;33273;-56
2023/04/19 08:45:38;;;;;;;6.32;3.28;;;;;;;16.89;39.34;100250.81;5554063;32;34208;-56
2023/04/19 08:48:42;;;;;;;6.85;3.35;;;;;;;16.91;39.59;100243.16;5558069;32;33812;-56
2023/04/19 08:51:47;;;;;;;5.30;3.30;;;;;;;16.90;40.69;100249.69;5549925;32;33788;-56
2023/04/19 08:54:50;;;;;;;6.43;3.15;;;;;;;16.79;39.61;100240.34;5554479;32;33184;-55
2023/04/19 08:57:52;;;;;;;6.87;3.47;;;;;;;16.93;45.05;100240.13;5560953;32;34368;-56
2023/04/19 09:00:56;;;;;;;6.87;4.10;;;;;;;16.95;41.59;100231.66;5551796;32;33751;-56
2023/04/19 09:03:59;;;;;;;7.22;4.30;;;;;;;16.79;42.22;100239.56;5551264;32;33658;-56
2023/04/19 09:07:23;;;;;;;7.12;4.20;;;;;;;16.81;42.13;100231.91;5555283;32;33683;-56
2023/04/19 09:10:26;;;;;;;9.88;4.03;;;;;;;16.84;46.38;100231.25;5557139;32;33647;-56
2023/04/19 09:13:29;;;;;;;9.27;4.87;;;;;;;16.85;43.93;100232.81;5553279;32;33618;-56
2023/04/19 09:16:31;;;;;;;11.77;5.32;;;;;;;16.83;42.25;100229.66;5560162;32;33647;-56
2023/04/19 09:19:47;;;;;;;7.03;5.35;;;;;;;16.85;46.77;100228.22;5563795;32;33708;-56
2023/04/19 09:23:04;;;;;;;7.35;5.10;;;;;;;16.86;43.27;100226.31;5566436;32;33735;-56
2023/04/19 09:26:07;;;;;;;8.23;5.55;;;;;;;16.68;43.95;100226.34;5567433;32;33630;-56
2023/04/19 09:29:25;;;;;;;13.13;6.05;;;;;;;16.64;47.36;100228.13;5566498;32;33394;-56
2023/04/19 09:32:44;;;;;;;8.57;4.97;;;;;;;16.71;44.66;100230.31;5565961;32;34326;-56
2023/04/19 09:35:48;;;;;;;9.23;4.70;;;;;;;16.76;48.41;100227.47;5565572;32;33797;-56
2023/04/19 09:38:51;;;;;;;9.48;5.22;;;;;;;16.81;42.62;100221.84;5566390;32;33288;-56
2023/04/19 09:41:53;;;;;;;6.70;4.93;;;;;;;17.04;52.06;100218.88;5566889;32;33927;-56
2023/04/19 09:44:59;;;;;;;10.32;5.35;;;;;;;17.14;54.76;100221.22;5564431;32;33614;-57
2023/04/19 09:48:06;;;;;;;7.45;4.95;;;;;;;17.20;45.11;100211.78;5559375;32;34314;-57
2023/04/19 09:51:09;;;;;;;8.55;5.57;;;;;;;17.32;42.34;100213.78;5565815;32;34892;-57
2023/04/19 09:54:16;;;;;;;;;;;;;;;17.42;43.10;100215.28;5566239;32;33761;-57
2023/04/19 09:57:19;;;;;;;8.40;6.25;;;;;;;17.55;45.56;100212.34;5564001;32;33773;-57
2023/04/19 10:00:22;;;;;;;8.32;5.72;;;;;;;17.64;43.49;100206.03;5566447;32;33588;-57
2023/04/19 10:03:27;;;;;;;6.78;4.85;;;;;;;17.60;43.50;100206.72;5566077;32;33679;-57
2023/04/19 10:06:31;;;;;;;9.00;5.70;;;;;;;17.57;43.11;100199.22;5568960;32;34317;-57
2023/04/19 10:09:56;;;;;;;6.68;4.93;;;;;;;17.66;42.67;100201.09;5565856;32;33649;-57
2023/04/19 10:13:17;;;;;;;8.23;5.10;;;;;;;17.78;47.84;100193.84;5560185;32;33892;-57
2023/04/19 10:16:25;;;;;;;8.02;5.22;;;;;;;17.87;44.86;100193.75;5567625;32;32905;-57
2023/04/19 10:19:28;;;;;;;19.77;6.45;;;;;;;17.93;41.87;100199.75;5559190;32;34455;-57
2023/04/19 10:22:32;;;;;;;9.45;5.70;;;;;;;18.12;49.20;100188.41;5564665;32;33762;-57
2023/04/19 10:25:37;;;;;;;8.57;6.30;;;;;;;18.30;42.83;100187.09;5566161;32;34328;-57
2023/04/19 10:28:40;;;;;;;;;;;;;;;18.26;43.07;100186.97;5562913;32;34005;-57
2023/04/19 10:31:42;;;;;;;10.80;7.20;;;;;;;18.10;42.98;100180.59;5561690;32;34820;-57
2023/04/19 10:34:46;;;;;;;9.80;6.65;;;;;;;18.00;45.34;100186.44;5562022;32;33390;-57
2023/04/19 10:38:11;;;;;;;10.93;8.43;;;;;;;18.05;49.19;100170.75;5560305;32;34183;-57
2023/04/19 10:41:15;;;;;;;16.80;12.10;;;;;;;18.24;46.66;100177.56;5561856;32;34375;-57
2023/04/19 10:44:19;;;;;;;;;;;;;;;18.19;51.30;100169.66;5567063;32;33897;-57
2023/04/19 10:47:44;;;;;;;15.13;9.73;;;;;;;17.96;51.37;100185.53;5558680;31;33891;-57
2023/04/19 10:51:03;;;;;;;15.98;8.85;;;;;;;17.68;48.44;100185.28;5557526;32;33791;-57
2023/04/19 10:54:08;;;;;;;14.13;10.73;;;;;;;17.44;49.53;100188.66;5561840;32;34411;-56
2023/04/19 10:57:10;;;;;;;12.80;9.75;;;;;;;17.14;49.36;100183.28;5560190;32;33650;-57
2023/04/19 11:00:24;;;;;;;10.27;8.63;;;;;;;17.05;49.26;100182.56;5565717;32;33752;-57
2023/04/19 11:03:44;;;;;;;15.10;8.88;;;;;;;17.11;48.67;100186.66;5559860;32;32516;-57
2023/04/19 11:06:50;;;;;;;11.35;8.27;;;;;;;16.98;48.84;100182.28;5566392;32;34380;-57
2023/04/19 11:09:52;;;;;;;11.33;8.37;;;;;;;16.91;48.60;100183.59;5561710;32;34360;-57
2023/04/19 11:12:57;;;;;;;10.80;8.63;;;;;;;16.95;48.90;100180.22;5562266;32;34343;-57
2023/04/19 11:16:06;;;;;;;11.35;8.77;;;;;;;17.02;50.39;100178.59;5557104;32;33621;-57
2023/04/19 11:19:10;;;;;;;14.82;8.27;;;;;;;17.07;48.32;100175.69;5561776;32;33644;-57
2023/04/19 11:22:12;;;;;;;12.80;6.90;;;;;;;17.12;47.67;100174.72;5561069;32;33781;-57
2023/04/19 11:25:18;;;;;;;10.15;7.30;;;;;;;17.14;45.62;100175.16;5565605;32;34339;-58
2023/04/19 11:28:20;;;;;;;9.37;7.43;;;;;;;17.23;47.25;100177.84;5561237;32;33625;-58
2023/04/19 11:31:24;;;;;;;11.23;8.00;;;;;;;17.23;47.73;100172.41;5563999;32;33699;-58
2023/04/19 11:34:26;;;;;;;11.85;7.80;;;;;;;17.33;51.54;100172.03;5558185;32;34398;-58
2023/04/19 11:37:32;;;;;;;14.25;8.93;;;;;;;17.31;46.55;100176.97;5560519;32;33716;-58
2023/04/19 11:40:37;;;;;;;12.20;7.93;;;;;;;17.35;47.38;100169.75;5559129;32;34358;-57
2023/04/19 11:43:40;;;;;;;12.25;9.68;;;;;;;17.40;48.29;100166.84;5559176;32;33729;-58
2023/04/19 11:46:59;;;;;;;12.95;10.75;;;;;;;17.35;47.74;100176.00;5566346;32;34353;-57
2023/04/19 11:50:31;;;;;;;12.52;11.25;;;;;;;17.31;49.86;100171.53;5565756;32;33647;-57
2023/04/19 11:53:33;;;;;;;18.95;12.07;;;;;;;17.35;52.30;100170.56;5567258;32;34360;-57
2023/04/19 11:56:35;;;;;;;16.92;11.90;;;;;;;17.25;53.33;100170.16;5559816;32;33729;-57
2023/04/19 11:59:37;;;;;;;12.37;10.60;;;;;;;17.22;54.94;100170.81;5560040;32;34415;-57
2023/04/19 12:02:42;;;;;;;13.95;11.40;;;;;;;17.20;53.46;100170.34;5563014;32;33603;-58
2023/04/19 12:05:52;;;;;;;14.98;11.05;;;;;;;17.23;51.33;100177.84;5559988;32;33686;-57
2023/04/19 12:08:56;;;;;;;13.23;9.80;;;;;;;17.25;50.72;100170.97;5555697;32;33737;-57
2023/04/19 12:11:58;;;;;;;11.98;9.35;;;;;;;17.31;48.87;100158.78;5554915;32;34310;-57
2023/04/19 12:15:01;;;;;;;12.35;9.68;;;;;;;17.36;50.78;100165.94;5551884;32;33633;-57
2023/04/19 12:18:03;;;;;;;12.25;9.07;;;;;;;17.47;49.81;100172.53;5554091;32;33592;-57
2023/04/19 12:21:05;;;;;;;12.68;9.65;;;;;;;17.53;49.85;100171.22;5565798;32;33628;-57
2023/04/19 12:24:08;;;;;;;12.93;10.18;;;;;;;17.55;50.00;100165.47;5560089;32;33730;-57
2023/04/19 12:27:11;;;;;;;12.13;10.23;;;;;;;17.70;51.94;100153.22;5559585;32;33664;-57
2023/04/19 12:30:13;;;;;;;13.32;11.07;;;;;;;17.71;50.04;100150.16;5561104;31;33710;-57
2023/04/19 12:33:16;;;;;;;16.15;12.45;;;;;;;17.59;51.91;100155.56;5557838;32;33794;-58
2023/04/19 12:36:29;;;;;;;13.77;11.70;;;;;;;17.68;52.25;100155.47;5562151;32;33577;-57
2023/04/19 12:39:31;;;;;;;16.48;12.20;;;;;;;17.66;54.51;100155.00;5559653;32;33472;-57
2023/04/19 12:42:34;;;;;;;17.75;12.73;;;;;;;17.75;53.64;100153.81;5557582;32;34257;-57
2023/04/19 12:45:36;;;;;;;14.82;12.00;;;;;;;17.83;55.03;100146.75;5556216;32;33553;-57
2023/04/19 12:48:42;;;;;;;16.33;12.07;;;;;;;17.76;53.80;100146.47;5561968;32;33557;-58
2023/04/19 12:51:46;;;;;;;15.32;10.05;;;;;;;17.83;54.99;100144.03;5559743;32;33319;-57
2023/04/19 12:54:48;;;;;;;13.88;9.82;;;;;;;17.79;51.69;100149.31;5561370;32;33908;-57
2023/04/19 12:57:51;;;;;;;15.02;9.43;;;;;;;17.75;51.77;100142.19;5569733;32;33761;-58
2023/04/19 13:00:53;;;;;;;12.63;8.27;;;;;;;17.79;48.66;100141.19;5566249;32;33574;-57
2023/04/19 13:03:55;;;;;;;10.35;7.93;;;;;;;17.79;48.40;100137.69;5568461;32;34425;-57
2023/04/19 13:07:01;;;;;;;8.80;7.37;;;;;;;17.76;49.54;100136.44;5567255;32;34352;-57
2023/04/19 13:10:03;;;;;;;11.82;9.48;;;;;;;17.96;51.24;100129.38;5568641;32;34230;-57
2023/04/19 13:13:05;;;;;;;11.25;8.93;;;;;;;17.98;48.40;100134.44;5569248;32;33991;-58
2023/04/19 13:16:08;;;;;;;10.43;8.65;;;;;;;18.07;47.59;100129.72;5569729;32;33775;-58
2023/04/19 13:19:10;;;;;;;15.43;8.27;;;;;;;18.13;46.70;100124.87;5565806;32;34255;-57
2023/04/19 13:22:12;;;;;;;12.60;8.40;;;;;;;18.17;47.49;100121.16;5561332;32;33802;-57
2023/04/19 13:25:15;;;;;;;11.77;7.97;;;;;;;18.31;47.96;100123.56;5569104;32;33412;-57
2023/04/19 13:28:17;;;;;;;10.60;7.70;;;;;;;18.33;45.51;100129.44;5568783;32;34343;-58
2023/04/19 13:31:19;;;;;;;9.82;7.30;;;;;;;18.31;45.67;100121.63;5554495;32;33593;-58
2023/04/19 13:34:21;;;;;;;9.65;7.47;;;;;;;18.38;47.79;100120.28;5549334;32;34429;-58
2023/04/19 13:37:24;;;;;;;8.43;6.95;;;;;;;18.37;45.63;100132.25;5549573;32;34062;-58
2023/04/19 13:40:26;;;;;;;10.30;7.70;;;;;;;18.41;46.67;100119.59;5561812;32;33848;-58
2023/04/19 13:43:29;;;;;;;12.73;10.43;;;;;;;18.42;45.32;100113.84;5562593;32;33714;-57
2023/04/19 13:46:32;;;;;;;21.42;10.82;;;;;;;18.39;48.91;100124.56;5549624;32;34335;-58
2023/04/19 13:49:34;;;;;;;12.50;10.25;;;;;;;18.46;55.86;100116.66;5560895;32;33713;-58
2023/04/19 13:52:37;;;;;;;15.60;11.88;;;;;;;18.44;53.64;100110.75;5569157;32;33732;-58
2023/04/19 13:55:40;;;;;;;16.05;12.43;;;;;;;18.41;52.23;100116.88;5569373;32;33656;-57
2023/04/19 13:58:42;;;;;;;17.12;12.30;;;;;;;18.40;52.89;100113.38;5567796;32;33661;-58
2023/04/19 14:01:44;;;;;;;16.77;11.93;;;;;;;18.43;53.21;100117.34;5568823;32;33731;-57
2023/04/19 14:04:47;;;;;;;14.48;12.07;;;;;;;18.15;51.78;100118.00;5568722;32;33584;-58
2023/04/19 14:07:49;;;;;;;15.65;11.48;;;;;;;18.07;51.32;100110.75;5566061;32;33724;-57
2023/04/19 14:10:52;;;;;;;13.70;10.82;;;;;;;18.03;50.66;100112.53;5549870;32;34460;-58
2023/04/19 14:13:54;;;;;;;20.33;11.80;;;;;;;18.04;53.31;100111.41;5549642;32;33781;-57
2023/04/19 14:16:57;;;;;;;16.00;11.52;;;;;;;17.85;53.28;100114.66;5549956;32;33748;-58
2023/04/19 14:19:59;;;;;;;12.85;10.98;;;;;;;17.88;53.56;100110.47;5550798;32;34269;-58
2023/04/19 14:23:02;;;;;;;14.18;10.35;;;;;;;17.81;52.40;100111.84;5568957;32;34535;-57
2023/04/19 14:26:04;;;;;;;11.93;10.02;;;;;;;17.95;51.38;100118.87;5568987;32;34601;-57
2023/04/19 14:29:07;;;;;;;12.75;10.65;;;;;;;18.03;50.29;100120.69;5559920;32;33581;-57
2023/04/19 14:32:09;;;;;;;13.88;10.80;;;;;;;17.96;52.43;100121.25;5563656;32;34393;-57
2023/04/19 14:35:26;;;;;;;15.15;10.30;;;;;;;17.77;52.33;100113.62;5555432;32;33707;-57
2023/04/19 14:38:28;;;;;;;14.73;11.00;;;;;;;17.90;51.58;100119.06;5549744;32;34392;-57
2023/04/19 14:41:31;;;;;;;12.40;10.52;;;;;;;17.66;51.30;100125.97;5558551;32;33715;-57
2023/04/19 14:44:33;;;;;;;12.95;10.27;;;;;;;17.66;52.82;100114.34;5568905;32;34414;-57
2023/04/19 14:47:35;;;;;;;14.10;11.63;;;;;;;17.73;53.61;100120.03;5568680;32;33351;-58
2023/04/19 14:50:37;;;;;;;13.55;11.27;;;;;;;17.80;54.29;100117.56;5568143;32;33770;-58
2023/04/19 14:53:40;;;;;;;15.25;10.75;;;;;;;17.70;53.90;100126.91;5568765;32;34481;-57
2023/04/19 14:56:42;;;;;;;16.33;11.18;;;;;;;17.71;53.90;100124.97;5567531;32;33512;-58
2023/04/19 14:59:45;;;;;;;12.95;10.10;;;;;;;17.67;53.47;100122.13;5568205;32;33742;-57
2023/04/19 15:02:47;;;;;;;11.80;9.85;;;;;;;17.64;52.63;100130.94;5567730;32;33677;-57
2023/04/19 15:05:50;;;;;;;11.02;8.38;;;;;;;17.52;51.91;100126.28;5549321;32;34155;-57
2023/04/19 15:08:52;;;;;;;11.40;8.88;;;;;;;17.62;54.79;100131.28;5555994;32;34333;-55
2023/04/19 15:11:55;;;;;;;12.50;9.55;;;;;;;17.53;51.65;100135.97;5549071;32;34401;-56
2023/04/19 15:14:57;;;;;;;13.00;10.38;;;;;;;17.54;51.29;100145.69;5549144;32;34339;-56
2023/04/19 15:18:00;;;;;;;12.75;9.93;;;;;;;17.58;50.66;100145.81;5549961;32;33678;-56
2023/04/19 15:21:03;;;;;;;11.93;9.63;;;;;;;17.55;52.71;100150.00;5549301;32;34302;-55
2023/04/19 15:24:06;;;;;;;14.20;9.40;;;;;;;17.56;51.76;100145.37;5549377;32;33597;-56
2023/04/19 15:27:09;;;;;;;16.45;9.27;;;;;;;17.56;52.42;100135.31;5551427;32;33509;-55
2023/04/19 15:30:11;;;;;;;13.52;9.40;;;;;;;17.40;52.27;100145.19;5562586;32;33589;-56
2023/04/19 15:33:13;;;;;;;12.37;9.05;;;;;;;17.36;51.46;100153.19;5562812;32;33750;-56
2023/04/19 15:36:16;;;;;;;12.00;8.88;;;;;;;17.37;51.66;100143.91;5559579;32;33673;-55
